Map

Track Data

SID SEASON NUMBER BASIN SUBBASIN NAME ISO_TIME NATURE LAT LON WMO_WIND WMO_PRES WMO_AGENCY TRACK_TYPE DIST2LAND LANDFALL IFLAG USA_AGENCY USA_ATCF_ID USA_LAT USA_LON USA_RECORD USA_STATUS USA_WIND USA_PRES USA_SSHS USA_R34_NE USA_R34_SE USA_R34_SW USA_R34_NW USA_R50_NE USA_R50_SE USA_R50_SW USA_R50_NW USA_R64_NE USA_R64_SE USA_R64_SW USA_R64_NW USA_POCI USA_ROCI USA_RMW USA_EYE TOKYO_LAT TOKYO_LON TOKYO_GRADE TOKYO_WIND TOKYO_PRES TOKYO_R50_DIR TOKYO_R50_LONG TOKYO_R50_SHORT TOKYO_R30_DIR TOKYO_R30_LONG TOKYO_R30_SHORT TOKYO_LAND CMA_LAT CMA_LON CMA_CAT CMA_WIND CMA_PRES HKO_LAT HKO_LON HKO_CAT HKO_WIND HKO_PRES NEWDELHI_LAT NEWDELHI_LON NEWDELHI_GRADE NEWDELHI_WIND NEWDELHI_PRES NEWDELHI_CI NEWDELHI_DP NEWDELHI_POCI REUNION_LAT REUNION_LON REUNION_TYPE REUNION_WIND REUNION_PRES REUNION_TNUM REUNION_CI REUNION_RMW REUNION_R34_NE REUNION_R34_SE REUNION_R34_SW REUNION_R34_NW REUNION_R50_NE REUNION_R50_SE REUNION_R50_SW REUNION_R50_NW REUNION_R64_NE REUNION_R64_SE REUNION_R64_SW REUNION_R64_NW BOM_LAT BOM_LON BOM_TYPE BOM_WIND BOM_PRES BOM_TNUM BOM_CI BOM_RMW BOM_R34_NE BOM_R34_SE BOM_R34_SW BOM_R34_NW BOM_R50_NE BOM_R50_SE BOM_R50_SW BOM_R50_NW BOM_R64_NE BOM_R64_SE BOM_R64_SW BOM_R64_NW BOM_ROCI BOM_POCI BOM_EYE BOM_POS_METHOD BOM_PRES_METHOD NADI_LAT NADI_LON NADI_CAT NADI_WIND NADI_PRES WELLINGTON_LAT WELLINGTON_LON WELLINGTON_WIND WELLINGTON_PRES DS824_LAT DS824_LON DS824_STAGE DS824_WIND DS824_PRES TD9636_LAT TD9636_LON TD9636_STAGE TD9636_WIND TD9636_PRES TD9635_LAT TD9635_LON TD9635_WIND TD9635_PRES TD9635_ROCI NEUMANN_LAT NEUMANN_LON NEUMANN_CLASS NEUMANN_WIND NEUMANN_PRES MLC_LAT MLC_LON MLC_CLASS MLC_WIND MLC_PRES USA_GUST BOM_GUST BOM_GUST_PER REUNION_GUST REUNION_GUST_PER USA_SEAHGT USA_SEARAD_NE USA_SEARAD_SE USA_SEARAD_SW USA_SEARAD_NW STORM_SPEED STORM_DIR
1989291N05158 1989 118 WP MM FORREST 1989-10-18 00:00:00 NR 5.00000 157.800 main 1131 1110 O_________O___ jtwc_wp WP311989 5.00000 157.800 15 -1 5.00000 157.800 1 15 4 237
1989291N05158 1989 118 WP MM FORREST 1989-10-18 03:00:00 NR 4.88487 157.616 main 1110 1094 P_________P___ WP311989 4.91503 157.575 17 -1 4.85471 157.658 1 16 4 235
1989291N05158 1989 118 WP MM FORREST 1989-10-18 06:00:00 NR 4.75876 157.456 main 1094 1063 O_________P___ jtwc_wp WP311989 4.80000 157.400 20 -1 4.71753 157.512 1 17 4 227
1989291N05158 1989 118 WP MM FORREST 1989-10-18 09:00:00 NR 4.61953 157.330 main 1063 1048 P_________P___ WP311989 4.64248 157.300 20 -1 4.59658 157.361 1 18 4 225
1989291N05158 1989 118 WP MM FORREST 1989-10-18 12:00:00 NR 4.50000 157.200 main 1048 1026 O_________O___ jtwc_wp WP311989 4.50000 157.200 20 -1 4.50000 157.200 1 20 4 239
1989291N05158 1989 118 WP MM FORREST 1989-10-18 15:00:00 NR 4.43374 157.021 main 1026 1014 P_________P___ WP311989 4.43500 157.015 20 -1 4.43248 157.027 1 20 4 254
1989291N05158 1989 118 WP MM FORREST 1989-10-18 18:00:00 NR 4.39248 156.819 main 1014 1003 O_________P___ jtwc_wp WP311989 4.40000 156.800 20 -1 4.38496 156.838 1 20 4 258
1989291N05158 1989 118 WP MM FORREST 1989-10-18 21:00:00 NR 4.35122 156.622 main 1003 982 P_________P___ WP311989 4.35748 156.615 20 -1 4.34497 156.630 1 20 4 257
1989291N05158 1989 118 WP MM FORREST 1989-10-19 00:00:00 NR 4.30000 156.400 main 982 955 O_________O___ jtwc_wp WP311989 4.30000 156.400 20 -1 4.30000 156.400 1 20 5 254
1989291N05158 1989 118 WP MM FORREST 1989-10-19 03:00:00 NR 4.21407 156.127 main 955 934 P_________P___ WP311989 4.20001 156.107 20 -1 4.22813 156.147 1 20 6 253
1989291N05158 1989 118 WP MM FORREST 1989-10-19 06:00:00 NR 4.12500 155.836 main 928 917 O_________P___ jtwc_wp WP311989 4.10000 155.800 20 -1 4.15000 155.872 1 20 6 254
1989291N05158 1989 118 WP MM FORREST 1989-10-19 09:00:00 NR 4.05718 155.565 main 917 891 P_________P___ WP311989 4.04249 155.543 20 -1 4.07187 155.587 1 20 6 257
1989291N05158 1989 118 WP MM FORREST 1989-10-19 12:00:00 NR 4.00000 155.300 main 891 870 O_________O___ jtwc_wp WP311989 4.00000 155.300 20 -1 4.00000 155.300 1 20 5 256
1989291N05158 1989 118 WP MM FORREST 1989-10-19 15:00:00 NR 3.93214 155.051 main 870 855 P_________P___ WP311989 3.94999 155.058 20 -1 3.91430 155.045 1 20 5 256
1989291N05158 1989 118 WP MM FORREST 1989-10-19 18:00:00 NR 3.86994 154.794 main 855 831 O_________P___ jtwc_wp WP311989 3.90000 154.800 20 -1 3.83988 154.787 1 20 5 258
1989291N05158 1989 118 WP MM FORREST 1989-10-19 21:00:00 NR 3.81525 154.520 main 831 815 P_________P___ WP311989 3.83497 154.530 20 -1 3.79553 154.511 1 20 6 263
1989291N05158 1989 118 WP MM FORREST 1989-10-20 00:00:00 NR 3.80000 154.200 main 815 796 O_________O___ jtwc_wp WP311989 3.80000 154.200 20 -1 3.80000 154.200 1 20 7 270
1989291N05158 1989 118 WP MM FORREST 1989-10-20 03:00:00 NR 3.82132 153.782 main 796 787 P_________P___ WP311989 3.81253 153.757 20 -1 3.83011 153.807 1 20 9 277
1989291N05158 1989 118 WP MM FORREST 1989-10-20 06:00:00 NR 3.90759 153.342 main 786 782 O_________P___ jtwc_wp WP311989 3.90000 153.300 20 -1 3.91517 153.385 1 20 9 286
1989291N05158 1989 118 WP MM FORREST 1989-10-20 09:00:00 NR 4.05756 152.945 main 793 790 P_________P___ WP311989 4.04748 152.920 20 -1 4.06763 152.970 1 20 8 298
1989291N05158 1989 118 WP MM FORREST 1989-10-20 12:00:00 NR 4.30000 152.600 main 806 804 O_________O___ jtwc_wp WP311989 4.30000 152.600 20 -1 4.30000 152.600 1 20 9 314
1989291N05158 1989 118 WP MM FORREST 1989-10-20 15:00:00 NR 4.64541 152.326 main 832 832 P_________P___ WP311989 4.66998 152.328 20 -1 4.62083 152.325 1 21 9 327
1989291N05158 1989 118 WP MM FORREST 1989-10-20 18:00:00 NR 5.05869 152.099 main 884 882 O_________P___ jtwc_wp WP311989 5.10000 152.100 20 -1 5.01737 152.097 1 22 9 333
1989291N05158 1989 118 WP MM FORREST 1989-10-20 21:00:00 NR 5.47761 151.894 main 925 925 P_________P___ WP311989 5.49998 151.892 22 -1 5.45524 151.896 1 23 11 347
1989291N05158 1989 118 WP MM FORREST 1989-10-21 00:00:00 TS 6.13333 151.844 1004 tokyo main 991 991 OO________O___ jtwc_wp WP311989 5.90000 151.700 25 -1 8.00000 153.000 2 1004 0 0 0 5.90000 151.700 1 25 12 352
1989291N05158 1989 118 WP MM FORREST 1989-10-21 03:00:00 TS 6.68575 151.728 main 1057 1057 PP________P___ WP311989 6.29998 151.507 25 -1 8.21255 152.698 2 1002 0 0 6.30812 151.463 1 25 12 337
1989291N05158 1989 118 WP MM FORREST 1989-10-21 06:00:00 TS 7.25500 151.376 1000 tokyo main 1121 1121 OOO_______P___ jtwc_wp WP311989 6.70000 151.300 25 -1 8.40000 152.400 2 1000 0 0 0 8.20000 149.200 0 19 1001 6.71500 151.228 1 25 12 328
1989291N05158 1989 118 WP MM FORREST 1989-10-21 09:00:00 TS 7.69982 151.094 main 1165 1165 PPP_______P___ WP311989 7.10752 151.043 25 -1 8.54996 152.107 2 1000 0 0 8.35502 149.352 0 19 1000 7.11438 151.003 1 25 10 324
1989291N05158 1989 118 WP MM FORREST 1989-10-21 12:00:00 TS 8.02000 150.807 1000 tokyo main 1193 1193 OOO_______O___ jtwc_wp WP311989 7.50000 150.800 25 -1 8.70000 151.800 2 1000 0 0 0 8.50000 149.500 0 19 1000 7.50000 150.800 1 25 8 321
1989291N05158 1989 118 WP MM FORREST 1989-10-21 15:00:00 TS 8.30634 150.602 main 1218 1218 PPP_______P___ WP311989 7.85747 150.635 25 -1 8.88492 151.480 2 1000 0 0 8.63498 149.643 0 24 997 7.84799 150.652 1 26 6 327
1989291N05158 1989 118 WP MM FORREST 1989-10-21 18:00:00 TS 8.55525 150.458 1000 tokyo main 1247 1244 OOOO______P___ jtwc_wp WP311989 8.20000 150.500 25 -1 9.10000 151.100 2 1000 0 0 0 8.80000 149.800 1 29 995 8.30000 150.100 TD 25 1000 8.18480 150.522 1 27 6 331
1989291N05158 1989 118 WP MM FORREST 1989-10-21 21:00:00 TS 8.83458 150.311 main 1263 1263 PPPP______P___ WP311989 8.53495 150.380 27 -1 9.34268 150.570 2 1000 0 0 9.02752 150.007 1 29 995 8.64250 150.120 TD 25 1000 8.52921 150.380 1 28 7 334
1989291N05158 1989 118 WP MM FORREST 1989-10-22 00:00:00 TS 9.14737 150.163 1000 tokyo main 1292 1292 OOOO______O___ jtwc_wp WP311989 8.90000 150.200 30 -1 9.60000 150.100 2 1000 0 0 0 9.30000 150.200 1 29 995 9.00000 150.100 TD 25 1000 8.90000 150.200 1 30 7 337
1989291N05158 1989 118 WP MM FORREST 1989-10-22 03:00:00 TS 9.49469 150.023 main 1331 1331 PPPP______P___ WP311989 9.33508 149.865 30 -1 9.83481 149.927 2 999 0 0 9.58496 150.375 1 29 995 9.38501 150.015 TD 25 1000 9.33357 149.931 1 31 8 337
1989291N05158 1989 118 WP MM FORREST 1989-10-22 06:00:00 TS 9.87854 149.845 35 998 tokyo main 1370 1370 OOOO______P___ jtwc_wp WP311989 9.80000 149.500 30 -1 10.1000 149.800 3 35 998 0 9 80 80 0 9.90000 150.400 1 29 995 9.80000 149.900 TD 25 1000 9.79271 149.623 1 32 9 333
1989291N05158 1989 118 WP MM FORREST 1989-10-22 09:00:00 TS 10.2910 149.617 main 1410 1410 PPPP______P___ WP311989 10.2574 149.235 32 -1 10.4425 149.480 3 35 997 0 9 80 80 10.2572 150.235 1 33 992 10.2425 149.830 TD 25 1000 10.2555 149.303 1 33 10 328
1989291N05158 1989 118 WP MM FORREST 1989-10-22 12:00:00 TS 10.7000 149.320 35 996 tokyo main 1449 1449 OOOO______O___ jtwc_wp WP311989 10.7000 149.000 35 0 10.8000 149.100 3 35 996 0 9 80 80 0 10.6000 149.800 2 38 990 10.7000 149.700 TD 25 1000 10.7000 149.000 2 35 10 318
1989291N05158 1989 118 WP MM FORREST 1989-10-22 15:00:00 TS 11.0589 148.923 main 1488 1487 PPPP______P___ WP311989 11.1150 148.742 37 0 11.1000 148.735 3 37 995 0 9 90 90 10.8134 148.955 2 38 990 11.1576 149.423 TD 30 997 11.1085 148.761 2 37 10 314
1989291N05158 1989 118 WP MM FORREST 1989-10-22 18:00:00 TS 11.4189 148.548 40 994 tokyo main 1517 1517 OOOO______P___ jtwc_wp WP311989 11.5000 148.500 40 0 11.4000 148.400 3 40 994 0 9 100 100 0 11.1000 148.200 2 38 990 11.6000 149.100 TS 35 995 11.4947 148.542 2 40 10 324
1989291N05158 1989 118 WP MM FORREST 1989-10-22 21:00:00 TS 11.8301 148.344 main 1560 1560 PPPP______P___ WP311989 11.8574 148.300 42 0 11.7350 148.127 3 42 993 0 9 112 112 11.6771 148.124 2 43 987 12.0225 148.842 TS 35 995 11.8585 148.327 2 42 9 336
1989291N05158 1989 118 WP MM FORREST 1989-10-23 00:00:00 TS 12.2400 148.180 45 992 tokyo main 1604 1604 OOOO______O___ jtwc_wp WP311989 12.2000 148.100 45 0 12.1000 147.900 3 45 992 0 9 125 125 0 12.3000 148.200 3 48 985 12.4000 148.600 TS 35 995 12.2000 148.100 2 45 9 333
1989291N05158 1989 118 WP MM FORREST 1989-10-23 03:00:00 TS 12.6177 147.938 main 1647 1647 PPPP______P___ WP311989 12.5650 147.865 47 0 12.5075 147.692 3 45 991 0 9 125 125 12.7601 147.930 3 48 985 12.7224 148.357 TS 35 995 12.5337 147.843 2 47 9 325
1989291N05158 1989 118 WP MM FORREST 1989-10-23 06:00:00 TS 12.9490 147.674 45 990 tokyo main 1680 1680 OOOO______P___ jtwc_wp WP311989 12.9000 147.600 50 0 12.9000 147.500 3 45 990 0 9 125 125 0 13.1000 147.600 3 48 985 13.0000 148.100 TS 35 995 12.8449 147.572 2 50 8 320
1989291N05158 1989 118 WP MM FORREST 1989-10-23 09:00:00 TS 13.2217 147.424 main 1714 1714 PPPP______P___ WP311989 13.1725 147.307 52 0 13.2150 147.300 3 47 987 0 9 125 125 13.3373 147.415 3 48 985 13.2500 147.807 TS 35 995 13.1337 147.290 2 52 7 316
1989291N05158 1989 118 WP MM FORREST 1989-10-23 12:00:00 TS 13.4600 147.160 50 985 tokyo main 1747 1747 OOOO______O___ jtwc_wp WP311989 13.4000 147.000 55 0 13.5000 147.100 4 50 985 0 9 125 125 0 13.5000 147.200 3 48 985 13.5000 147.500 TS 35 995 13.4000 147.000 2 55 7 311
1989291N05158 1989 118 WP MM FORREST 1989-10-23 15:00:00 TS 13.6960 146.869 main 1770 1770 PPPP______P___ WP311989 13.6000 146.700 57 0 13.8074 146.915 4 50 985 0 9 125 125 13.6427 146.793 3 53 982 13.7999 147.222 TS 37 992 13.6302 146.715 2 56 7 309
1989291N05158 1989 118 WP MM FORREST 1989-10-23 18:00:00 TS 13.9285 146.564 50 985 tokyo main 1792 1792 OOOO______P___ jtwc_wp WP311989 13.8000 146.400 60 0 14.1000 146.700 4 50 985 0 9 125 125 0 13.8000 146.400 3 58 980 14.1000 146.900 TS 40 990 13.8423 146.422 2 57 7 309
1989291N05158 1989 118 WP MM FORREST 1989-10-23 21:00:00 TS 14.1626 146.272 main 1826 1826 PPPP______P___ WP311989 14.0274 146.107 60 0 14.3650 146.422 4 50 985 0 9 125 125 14.0048 146.250 3 58 980 14.3576 146.465 TS 40 990 14.0583 146.118 2 58 8 310
1989291N05158 1989 118 WP MM FORREST 1989-10-24 00:00:00 TS 14.4200 145.960 50 985 tokyo main 1849 1849 OOOO______O___ jtwc_wp WP311989 14.3000 145.800 60 0 14.6000 146.100 4 50 985 0 9 125 125 0 14.3000 146.100 3 58 980 14.6000 146.000 TS 40 990 14.3000 145.800 2 60 9 311
1989291N05158 1989 118 WP MM FORREST 1989-10-24 03:00:00 TS 14.7316 145.605 main 1885 1885 PPPP______P___ WP311989 14.6425 145.458 60 0 14.7924 145.772 4 52 982 0 9 137 137 14.7576 145.730 3 58 980 14.8574 145.592 TS 42 987 14.6083 145.473 2 61 10 312
1989291N05158 1989 118 WP MM FORREST 1989-10-24 06:00:00 TS 15.0485 145.226 55 980 tokyo main 1921 1921 OOOO______P___ jtwc_wp WP311989 15.0000 145.100 60 0 15.0000 145.400 4 55 980 9 60 60 9 150 150 0 15.2000 145.300 3 58 980 15.1000 145.200 TS 45 985 14.9423 145.130 2 62 9 309
1989291N05158 1989 118 WP MM FORREST 1989-10-24 09:00:00 TS 15.3310 144.849 main 1959 1959 PPPP______P___ WP311989 15.3149 144.750 62 0 15.3000 144.965 4 55 980 9 60 60 9 150 150 15.4523 144.965 3 58 980 15.3075 144.792 TS 47 982 15.2801 144.772 2 63 9 306
1989291N05158 1989 118 WP MM FORREST 1989-10-24 12:00:00 TS 15.5800 144.460 55 980 tokyo main 1996 1996 OOOO______O___ jtwc_wp WP311989 15.6000 144.400 65 1 15.6000 144.500 4 55 980 9 60 60 9 150 150 0 15.6000 144.600 3 58 980 15.5000 144.400 STS 50 980 15.6000 144.400 3 65 9 300
1989291N05158 1989 118 WP MM FORREST 1989-10-24 15:00:00 TS 15.7758 144.063 main 2023 2006 PPPP______P___ WP311989 15.8574 144.065 67 1 15.7999 144.050 4 57 977 9 60 60 9 150 150 15.6776 144.115 3 63 977 15.6848 144.065 STS 52 977 15.8592 144.022 3 67 9 297
1989291N05158 1989 118 WP MM FORREST 1989-10-24 18:00:00 TS 15.9799 143.646 60 975 tokyo main 1997 1959 OOOO______P___ jtwc_wp WP311989 16.1000 143.700 70 1 16.0000 143.600 4 60 975 9 60 60 9 150 150 0 15.8000 143.600 4 68 975 15.9000 143.700 STS 55 975 16.0997 143.629 3 70 10 300
1989291N05158 1989 118 WP MM FORREST 1989-10-24 21:00:00 TS 16.2500 143.199 main 1962 1924 PPPP______P___ WP311989 16.3425 143.265 72 1 16.2849 143.157 4 62 972 9 60 60 9 162 162 16.1049 143.135 4 68 972 16.1776 143.215 STS 57 975 16.3404 143.222 3 72 10 304
1989291N05158 1989 118 WP MM FORREST 1989-10-25 00:00:00 TS 16.5600 142.740 65 970 tokyo main 1916 1880 OOOO______O___ jtwc_wp WP311989 16.6000 142.800 75 1 16.6000 142.700 5 65 970 9 60 60 9 175 175 0 16.5000 142.700 4 68 970 16.5000 142.700 STS 60 975 16.6000 142.800 4 75 11 306
1989291N05158 1989 118 WP MM FORREST 1989-10-25 03:00:00 TS 16.8860 142.282 main 1882 1847 PPPP______P___ WP311989 16.8849 142.350 77 1 16.9001 142.178 5 67 967 9 75 75 9 212 212 16.9148 142.300 4 68 967 16.8349 142.235 STS 65 972 16.8954 142.348 4 77 11 307
1989291N05158 1989 118 WP MM FORREST 1989-10-25 06:00:00 TS 17.2225 141.837 70 965 tokyo main 1840 1808 OOOO______P___ jtwc_wp WP311989 17.2000 141.900 80 1 17.2000 141.700 5 70 965 9 90 90 9 250 250 0 17.3000 141.900 4 68 965 17.2000 141.800 T 70 970 17.2127 141.885 4 80 11 309
1989291N05158 1989 118 WP MM FORREST 1989-10-25 09:00:00 TS 17.5512 141.411 main 1811 1782 PPPP______P___ WP311989 17.5425 141.435 82 1 17.4923 141.377 5 72 962 9 107 107 9 250 250 17.5726 141.427 4 72 962 17.5999 141.385 T 72 967 17.5486 141.429 4 82 10 310
1989291N05158 1989 118 WP MM FORREST 1989-10-25 12:00:00 TS 17.8800 141.020 75 960 tokyo main 1782 1745 OOOO______O___ jtwc_wp WP311989 17.9000 141.000 85 2 17.8000 141.100 5 75 960 9 125 125 9 250 250 0 17.8000 141.000 4 77 960 18.0000 141.000 T 75 965 17.9000 141.000 4 85 10 313
1989291N05158 1989 118 WP MM FORREST 1989-10-25 15:00:00 TS 18.1968 140.675 main 1745 1700 PPPP______P___ WP311989 18.2423 140.635 87 2 18.1275 140.757 5 75 957 9 125 125 9 250 250 18.0123 140.735 4 77 960 18.3499 140.642 T 75 965 18.2522 140.609 4 86 9 316
1989291N05158 1989 118 WP MM FORREST 1989-10-25 18:00:00 TS 18.5439 140.349 75 955 tokyo main 1695 1641 OOOO______P___ jtwc_wp WP311989 18.6000 140.300 90 2 18.5000 140.400 5 75 955 9 125 125 9 250 250 0 18.3000 140.500 4 77 960 18.7000 140.300 T 75 965 18.6196 140.247 4 87 10 320
1989291N05158 1989 118 WP MM FORREST 1989-10-25 21:00:00 TS 18.9584 140.002 main 1631 1576 PPPP______P___ WP311989 18.9775 139.935 90 2 18.9425 140.043 5 75 955 9 125 125 9 250 250 18.7699 140.180 4 77 960 19.1000 139.942 T 77 962 19.0023 139.912 4 88 11 323
1989291N05158 1989 118 WP MM FORREST 1989-10-26 00:00:00 TS 19.4000 139.660 75 955 tokyo main 1576 1517 OOOO______O___ jtwc_wp WP311989 19.4000 139.600 90 2 19.4000 139.700 5 75 955 9 125 125 9 250 250 0 19.3000 139.800 4 77 960 19.5000 139.600 T 80 960 19.4000 139.600 4 90 11 324
1989291N05158 1989 118 WP MM FORREST 1989-10-26 03:00:00 TS 19.8319 139.328 main 1517 1462 PPPP______P___ WP311989 19.9074 139.342 90 2 19.8074 139.392 5 77 952 9 125 125 9 262 262 19.7727 139.328 4 77 960 19.8574 139.285 T 82 957 19.8145 139.291 4 90 10 325
1989291N05158 1989 118 WP MM FORREST 1989-10-26 06:00:00 TS 20.2485 139.021 80 950 tokyo main 1462 1413 OOOO______P___ jtwc_wp WP311989 20.4000 139.100 90 2 20.2000 139.100 5 80 950 9 125 125 9 275 275 0 20.2000 138.900 4 77 960 20.2000 139.000 ST 85 955 20.2423 139.005 4 90 10 326
1989291N05158 1989 118 WP MM FORREST 1989-10-26 09:00:00 TS 20.6307 138.751 main 1413 1359 PPPP______P___ WP311989 20.7650 138.792 90 2 20.6075 138.792 5 80 950 9 125 125 9 275 275 20.5572 138.677 4 77 960 20.5499 138.750 ST 85 955 20.6739 138.741 4 90 9 327
1989291N05158 1989 118 WP MM FORREST 1989-10-26 12:00:00 TS 21.0000 138.500 80 950 tokyo main 1359 1305 OOOO______O___ jtwc_wp WP311989 21.1000 138.500 90 2 21.0000 138.500 5 80 950 9 125 125 9 275 275 0 20.9000 138.500 4 77 960 20.9000 138.500 ST 85 955 21.1000 138.500 4 90 9 327
1989291N05158 1989 118 WP MM FORREST 1989-10-26 15:00:00 TS 21.3745 138.236 main 1305 1265 PPPP______P___ WP311989 21.4924 138.285 90 2 21.3499 138.242 5 82 947 9 125 125 9 287 287 21.3001 138.200 4 82 955 21.2351 138.192 ST 90 950 21.4949 138.258 4 91 9 328
1989291N05158 1989 118 WP MM FORREST 1989-10-26 18:00:00 TS 21.7570 137.988 85 945 tokyo main 1256 1216 OOOO______P___ jtwc_wp WP311989 21.9000 138.100 90 2 21.7000 138.000 5 85 945 9 125 125 9 300 300 0 21.7000 137.900 5 87 950 21.6000 137.900 ST 95 945 21.8849 138.040 4 92 9 331
1989291N05158 1989 118 WP MM FORREST 1989-10-26 21:00:00 TS 22.1475 137.767 main 1216 1167 PPPP______P___ WP311989 22.2925 137.885 92 2 22.0925 137.735 5 85 942 9 125 125 9 450 300 22.0424 137.677 5 87 950 22.0274 137.685 ST 92 947 22.2825 137.852 4 93 9 335
1989291N05158 1989 118 WP MM FORREST 1989-10-27 00:00:00 TS 22.5600 137.580 85 940 tokyo main 1158 1109 OOOO______O___ jtwc_wp WP311989 22.7000 137.700 95 2 22.5000 137.500 5 85 940 9 125 125 8 600 300 0 22.4000 137.500 5 87 950 22.5000 137.500 ST 90 950 22.7000 137.700 4 95 9 339
1989291N05158 1989 118 WP MM FORREST 1989-10-27 03:00:00 TS 22.9863 137.410 main 1109 1065 PPPP______P___ WP311989 23.1350 137.577 95 2 22.8700 137.327 5 85 940 9 137 137 8 600 300 22.8125 137.327 5 82 955 22.9851 137.270 ST 87 950 23.1289 137.549 4 95 9 343
1989291N05158 1989 118 WP MM FORREST 1989-10-27 06:00:00 TS 23.4565 137.288 85 940 tokyo main 1056 1012 OOOO______P___ jtwc_wp WP311989 23.6000 137.500 95 2 23.3000 137.200 5 85 940 9 150 150 8 600 300 0 23.3000 137.200 4 77 960 23.5000 137.100 ST 85 950 23.5823 137.439 4 95 10 350
1989291N05158 1989 118 WP MM FORREST 1989-10-27 09:00:00 TS 23.9769 137.211 main 1003 957 PPPP______P___ WP311989 24.0775 137.428 95 2 23.8475 137.055 5 85 940 9 150 150 8 525 300 23.8550 137.120 4 77 960 24.0350 137.070 ST 80 955 24.0696 137.384 4 95 11 356
1989291N05158 1989 118 WP MM FORREST 1989-10-27 12:00:00 TS 24.5600 137.200 85 940 tokyo main 948 894 OOOO______O___ jtwc_wp WP311989 24.6000 137.400 95 2 24.5000 137.000 5 85 940 9 150 150 8 450 300 0 24.5000 137.100 4 77 960 24.6000 137.100 T 75 960 24.6000 137.400 4 95 12 1
1989291N05158 1989 118 WP MM FORREST 1989-10-27 15:00:00 TS 25.2091 137.217 main 894 849 PPPP______P___ WP311989 25.1774 137.398 92 2 25.2500 137.112 5 85 940 9 150 150 8 450 300 25.2574 137.105 4 77 960 25.1925 137.070 T 72 962 25.1681 137.401 4 93 13 4
1989291N05158 1989 118 WP MM FORREST 1989-10-27 18:00:00 TS 25.8759 137.317 85 940 tokyo main 840 787 OOOO______P___ jtwc_wp WP311989 25.8000 137.500 90 2 26.0000 137.300 5 85 940 9 150 150 8 450 300 0 26.0000 137.200 4 77 960 25.8000 137.100 T 70 965 25.7796 137.486 4 92 13 11
1989291N05158 1989 118 WP MM FORREST 1989-10-27 21:00:00 TS 26.4972 137.502 main 787 728 PPPP______P___ WP311989 26.4421 137.711 90 2 26.6298 137.421 5 85 942 9 150 150 8 425 350 26.5800 137.420 4 77 962 26.4075 137.255 T 67 965 26.4264 137.703 4 91 13 19
1989291N05158 1989 118 WP MM FORREST 1989-10-28 00:00:00 TS 27.1000 137.800 85 945 tokyo main 728 683 OOOO______O___ jtwc_wp WP311989 27.1000 138.100 90 2 27.2000 137.600 5 85 945 9 150 150 9 400 400 0 27.1000 137.700 4 77 965 27.0000 137.500 T 65 965 27.1000 138.100 4 90 13 25
1989291N05158 1989 118 WP MM FORREST 1989-10-28 03:00:00 TS 27.6511 138.118 main 672 634 PPPP______P___ WP311989 27.7344 138.646 85 2 27.7192 137.847 5 82 947 9 150 150 9 387 387 27.5884 137.819 4 72 967 27.4887 137.676 T 62 967 27.7246 138.603 4 86 14 33
1989291N05158 1989 118 WP MM FORREST 1989-10-28 06:00:00 TS 28.2756 138.661 80 950 tokyo main 632 598 OOOO______P___ jtwc_wp WP311989 28.4000 139.400 80 1 28.3000 138.300 5 80 950 9 150 150 9 375 375 0 28.2000 138.200 4 68 970 28.1000 138.100 STS 60 970 28.3781 139.304 4 82 19 41
1989291N05158 1989 118 WP MM FORREST 1989-10-28 09:00:00 TS 29.0692 139.504 main 594 550 PPPP______P___ WP311989 29.1111 140.283 77 1 29.0289 138.922 5 77 955 9 137 137 9 375 375 29.0974 139.154 4 68 972 29.0158 138.935 STS 60 970 29.0928 140.228 4 78 25 47
1989291N05158 1989 118 WP MM FORREST 1989-10-28 12:00:00 TS 29.9737 140.726 75 960 tokyo main 543 497 OOOO______O___ jtwc_wp WP311989 29.9000 141.400 75 1 29.9000 140.000 5 75 960 9 125 125 9 375 375 0 30.1000 140.500 4 68 975 30.1000 140.200 STS 60 970 29.9000 141.400 4 75 30 52
1989291N05158 1989 118 WP MM FORREST 1989-10-28 15:00:00 TS 30.8845 142.219 main 494 490 PPPP______P___ WP311989 30.7450 142.705 72 1 30.9005 141.689 5 72 962 9 125 125 9 375 375 31.0176 141.875 4 63 977 31.2089 141.838 STS 60 970 30.7129 142.797 4 71 34 57
1989291N05158 1989 118 WP MM FORREST 1989-10-28 18:00:00 TS 31.8109 144.018 70 965 tokyo main 504 502 OOOO______P___ jtwc_wp WP311989 31.7000 144.300 70 1 31.9000 143.800 5 70 965 9 125 125 9 375 375 0 31.9000 143.600 3 58 980 32.3000 143.700 STS 60 970 31.6213 144.451 4 67 37 62
1989291N05158 1989 118 WP MM FORREST 1989-10-28 21:00:00 TS 32.6299 146.040 main 581 581 PPP_______P___ WP311989 32.7157 146.173 65 1 32.5817 145.929 5 67 967 9 212 162 9 487 387 32.5541 145.755 3 58 980 STS 32.6680 146.302 4 63 41 62
1989291N05158 1989 118 WP MM FORREST 1989-10-29 00:00:00 TS 33.7133 148.300 65 970 tokyo main 710 710 OOO_______O___ jtwc_wp WP311989 33.9000 148.300 60 0 33.5000 148.300 5 65 970 1 300 200 1 600 400 0 33.5000 148.300 3 58 980 33.9000 148.300 2 60 48 57
1989291N05158 1989 118 WP MM FORREST 1989-10-29 03:00:00 TS 35.2524 150.826 main 890 890 PPP_______P___ WP311989 35.2449 150.619 60 0 35.1528 151.170 5 970 1 1 35.1515 151.163 3 58 980 35.4100 150.522 2 60 53 52
1989291N05158 1989 118 WP MM FORREST 1989-10-29 06:00:00 MX 36.9781 153.379 970 tokyo main 960 922 OOO_______P___ jtwc_wp WP311989 36.8000 153.000 60 0 37.0000 154.000 6 970 0 0 0 37.2000 154.300 3 58 980 37.0788 152.906 2 60 51 49
1989291N05158 1989 118 WP MM FORREST 1989-10-29 09:00:00 ET 38.6058 155.613 main 916 873 PP________P___ WP311989 38.5830 155.324 60 0 38.4545 156.221 6 965 0 0 3 38.7798 155.294 2 60 47 46
1989291N05158 1989 118 WP MM FORREST 1989-10-29 12:00:00 ET 40.2667 157.667 960 tokyo main 870 854 OO________O___ jtwc_wp WP311989 40.4000 157.500 60 0 40.0000 158.000 6 960 0 0 0 40.4000 157.500 2 60 45 41
1989291N05158 1989 118 WP MM FORREST 1989-10-29 15:00:00 ET 41.9970 159.506 main 855 837 PP________P___ WP311989 42.0520 159.511 60 0 42.0717 159.643 6 958 0 0 41.8672 159.363 2 60 42 37
1989291N05158 1989 118 WP MM FORREST 1989-10-29 18:00:00 ET 43.6134 161.038 956 tokyo main 827 753 OO________P___ jtwc_wp WP311989 43.5000 161.200 60 0 44.0000 161.000 6 956 0 0 0 43.2113 160.927 2 60 36 35
1989291N05158 1989 118 WP MM FORREST 1989-10-29 21:00:00 ET 44.9191 162.300 main 757 720 PP________P___ WP311989 44.6786 162.507 60 0 45.2604 162.196 6 954 0 0 44.4770 162.299 2 60 28 34
1989291N05158 1989 118 WP MM FORREST 1989-10-30 00:00:00 ET 45.9000 163.200 952 tokyo main 720 688 OO________O___ jtwc_wp WP311989 45.7000 163.600 60 0 46.0000 163.000 6 952 0 0 0 45.7000 163.600 2 60 16 25
1989291N05158 1989 118 WP MM FORREST 1989-10-30 03:00:00 ET 46.3975 163.294 main 688 681 _P____________ WP311989 -1 46.3975 163.294 6 952 0 0 2 6 19
1989291N05158 1989 118 WP MM FORREST 1989-10-30 06:00:00 ET 46.5000 163.500 952 tokyo main 693 693 _O____________ -1 46.5000 163.500 6 952 0 0 0 2 6 73
1989291N05158 1989 118 WP MM FORREST 1989-10-30 09:00:00 ET 46.5747 164.136 main 713 713 _P____________ -1 46.5747 164.136 6 956 0 0 2 10 90
1989291N05158 1989 118 WP MM FORREST 1989-10-30 12:00:00 ET 46.5000 165.000 960 tokyo main 764 764 _O____________ -1 46.5000 165.000 6 960 0 0 0 12 105
1989291N05158 1989 118 WP MM FORREST 1989-10-30 15:00:00 ET 46.2477 165.891 main 834 834 _P____________ -1 46.2477 165.891 6 962 0 0 15 110
1989291N05158 1989 118 WP MM FORREST 1989-10-30 18:00:00 ET 46.0000 167.000 964 tokyo main 907 907 _O____________ -1 46.0000 167.000 6 964 0 0 0 18 102
1989291N05158 1989 118 WP MM FORREST 1989-10-30 21:00:00 ET 45.8883 168.429 main 992 992 _P____________ -1 45.8883 168.429 6 966 0 0 21 90
1989291N05158 1989 118 WP MM FORREST 1989-10-31 00:00:00 ET 46.0000 170.000 968 tokyo main 1059 1059 _O____________ -1 46.0000 170.000 6 968 0 0 0 22 74
1989291N05158 1989 118 WP MM FORREST 1989-10-31 03:00:00 ET 46.4981 171.490 main 1092 1092 _P____________ -1 46.4981 171.490 6 969 0 0 23 64
1989291N05158 1989 118 WP MM FORREST 1989-10-31 06:00:00 ET 47.0000 173.000 970 tokyo main 1136 1136 _O____________ -1 47.0000 173.000 6 970 0 0 0 21 77
1989291N05158 1989 118 WP MM FORREST 1989-10-31 09:00:00 ET 46.9574 174.443 main 1208 1208 _P____________ -1 46.9574 174.443 6 971 0 0 20 90
1989291N05158 1989 118 WP MM FORREST 1989-10-31 12:00:00 ET 47.0000 176.000 972 tokyo main 1255 1094 _O____________ -1 47.0000 176.000 6 972 0 0 0 25 73
1989291N05158 1989 118 WP MM FORREST 1989-10-31 15:00:00 ET 47.7163 177.981 main 1088 922 _P____________ -1 47.7163 177.981 6 973 0 0 31 61
1989291N05158 1989 118 EP CP FORREST 1989-10-31 18:00:00 ET 48.5000 180.000 974 tokyo main 916 796 _O____________ -1 48.5000 180.000 6 974 0 0 0 27 64
1989291N05158 1989 118 EP CP FORREST 1989-10-31 21:00:00 ET 48.8861 181.638 main 796 716 _P____________ -1 48.8861 -178.362 6 975 0 0 20 76
1989291N05158 1989 118 EP CP FORREST 1989-11-01 00:00:00 ET 49.0000 183.000 main 710 _O____________ -1 49.0000 183.000 6 976 0 0 0 18 83

Digital Typhoon Data and Search

About IBTrACS Database

This database is a web-friendly format of International Best Track Archive for Climate Stewardship (IBTrACS), a global best track data archive curated by NOAA dating back to 1842.

Updated: 2021-12-06